Time;durP1;ratioP1;P1;durP2;ratioP2;P2;SDS_P1;SDS_P2;PMS_P1;PMS_P2;Temp;Humidity;BMP_temperature;BMP_pressure;BME280_temperature;BME280_humidity;BME280_pressure;Samples;Min_cycle;Max_cycle;Signal;HPM_P1;HPM_P2
2021/12/27 00:02:24;;;;;;;;;5.25;4.25;;;;;12.16;76.22;99903.97;5072308;27;49702;-66
2021/12/27 00:04:49;;;;;;;;;3.50;3.50;;;;;11.99;76.80;99878.53;5072675;27;49815;-67
2021/12/27 00:07:15;;;;;;;;;3.00;3.00;;;;;12.15;76.42;99896.94;5072699;28;50022;-67
2021/12/27 00:09:41;;;;;;;;;4.50;3.00;;;;;12.16;76.54;99885.53;5072675;27;49873;-65
2021/12/27 00:12:07;;;;;;;;;2.25;2.25;;;;;12.19;76.41;99889.06;5071980;28;49838;-65
2021/12/27 00:14:32;;;;;;;;;3.00;3.00;;;;;12.17;76.28;99885.56;5072340;28;49807;-64
2021/12/27 00:16:58;;;;;;;;;5.25;3.00;;;;;12.17;76.22;99887.34;5072329;28;50348;-65
2021/12/27 00:19:23;;;;;;;;;3.00;3.00;;;;;12.15;76.55;99882.03;5072343;28;49786;-65
2021/12/27 00:21:49;;;;;;;;;3.00;2.50;;;;;12.15;76.79;99887.31;5072010;28;50185;-65
2021/12/27 00:24:14;;;;;;;;;3.00;2.00;;;;;12.15;76.55;99878.53;5072210;28;49949;-66
2021/12/27 00:26:39;;;;;;;;;3.75;3.00;;;;;12.16;76.64;99875.94;5071788;27;49697;-66
2021/12/27 00:29:05;;;;;;;;;2.00;2.00;;;;;12.15;76.33;99868.00;5072482;28;49723;-65
2021/12/27 00:31:30;;;;;;;;;5.00;3.75;;;;;12.22;76.28;99877.66;5071902;28;50103;-66
2021/12/27 00:33:56;;;;;;;;;2.25;2.25;;;;;11.85;76.14;99806.63;5072057;28;49665;-66
2021/12/27 00:36:21;;;;;;;;;3.50;2.75;;;;;12.24;75.90;99870.66;5072123;27;49854;-67
2021/12/27 00:38:46;;;;;;;;;5.00;3.00;;;;;12.23;76.03;99855.75;5072198;28;50036;-65
2021/12/27 00:41:12;;;;;;;;;1.25;1.00;;;;;12.25;75.84;99853.97;5071828;28;50613;-65
2021/12/27 00:43:37;;;;;;;;;3.00;3.00;;;;;12.24;76.01;99854.84;5071666;28;49850;-66
2021/12/27 00:46:02;;;;;;;;;2.50;1.75;;;;;12.22;75.80;99860.13;5071960;27;49716;-66
2021/12/27 00:48:28;;;;;;;;;2.00;2.00;;;;;12.23;75.77;99853.09;5071337;28;49738;-66
2021/12/27 00:50:53;;;;;;;;;2.25;1.50;;;;;12.20;76.04;99867.16;5074146;28;49842;-66
2021/12/27 00:53:19;;;;;;;;;2.00;2.00;;;;;12.23;75.97;99863.63;5071797;28;50042;-65
2021/12/27 00:55:44;;;;;;;;;2.75;1.00;;;;;12.12;75.63;99842.59;5071774;28;49711;-66
2021/12/27 00:58:10;;;;;;;;;2.50;1.00;;;;;12.24;75.77;99855.72;5071630;28;49773;-65
2021/12/27 01:00:37;;;;;;;;;1.00;1.00;;;;;12.14;75.66;99829.44;5071680;28;50250;-65
2021/12/27 01:03:03;;;;;;;;;1.50;1.50;;;;;12.24;75.64;99857.50;5071506;28;49714;-66
2021/12/27 01:05:28;;;;;;;;;2.00;1.00;;;;;12.12;75.43;99832.06;5074054;28;49895;-66
2021/12/27 01:07:55;;;;;;;;;2.25;2.25;;;;;12.24;75.63;99849.59;5071479;27;49869;-66
2021/12/27 01:18:04;;;;;;;;;1.75;1.75;;;;;12.16;75.11;99825.03;5071515;28;49757;-65
2021/12/27 01:20:29;;;;;;;;;1.00;1.00;;;;;12.20;75.43;99837.34;5071034;28;50517;-66
2021/12/27 01:22:55;;;;;;;;;5.25;2.25;;;;;12.18;75.31;99828.56;5069770;28;49997;-66
2021/12/27 01:25:22;;;;;;;;;4.00;2.00;;;;;12.19;75.27;99840.84;5071106;28;50624;-66
2021/12/27 01:27:47;;;;;;;;;3.25;2.00;;;;;12.01;75.19;99802.25;5071343;28;49739;-66
2021/12/27 01:30:16;;;;;;;;;1.00;1.00;;;;;12.16;75.32;99818.06;5070986;27;50499;-66
2021/12/27 01:32:50;;;;;;;;;1.00;1.00;;;;;12.16;75.16;99818.06;5071130;28;49952;-65
2021/12/27 01:35:16;;;;;;;;;1.25;0.75;;;;;12.10;75.00;99801.38;5071274;27;50029;-66
2021/12/27 01:37:42;;;;;;;;;1.75;1.75;;;;;12.16;75.27;99811.88;5071294;28;49572;-66
2021/12/27 01:40:10;;;;;;;;;2.25;2.25;;;;;12.15;75.46;99815.38;5070812;28;51447;-66
2021/12/27 01:42:35;;;;;;;;;1.00;1.00;;;;;12.14;75.41;99811.00;5070585;27;49660;-65
2021/12/27 01:45:01;;;;;;;;;1.00;1.00;;;;;12.06;75.11;99795.22;5070813;28;49740;-65
2021/12/27 01:47:28;;;;;;;;;3.25;2.50;;;;;12.18;75.73;99805.75;5070991;27;50037;-65
2021/12/27 01:49:54;;;;;;;;;1.25;1.25;;;;;12.17;75.36;99804.00;5070754;28;49972;-66
2021/12/27 01:52:19;;;;;;;;;1.00;1.00;;;;;11.93;75.27;99760.19;5070935;27;50094;-65
2021/12/27 01:54:45;;;;;;;;;1.00;1.00;;;;;12.14;75.41;99789.97;5071055;28;50044;-66
2021/12/27 01:57:11;;;;;;;;;1.00;0.50;;;;;11.78;75.52;99735.63;5070900;28;49807;-65
2021/12/27 01:59:37;;;;;;;;;2.00;2.00;;;;;12.12;75.17;99797.88;5070386;27;51587;-65
2021/12/27 02:02:03;;;;;;;;;1.75;1.00;;;;;12.17;75.22;99806.66;5070405;28;49794;-66
2021/12/27 02:04:29;;;;;;;;;1.25;1.25;;;;;11.76;75.47;99744.34;5070907;27;50002;-66
2021/12/27 02:06:54;;;;;;;;;2.00;2.00;;;;;11.74;75.73;99738.22;5069257;28;49751;-66
2021/12/27 02:09:32;;;;;;;;;1.00;1.00;;;;;12.15;75.46;99805.75;5070486;28;49819;-66
2021/12/27 02:11:57;;;;;;;;;1.75;1.75;;;;;11.95;75.24;99771.56;5065785;28;49846;-66
2021/12/27 02:14:22;;;;;;;;;1.00;0.50;;;;;12.14;75.50;99809.25;5070530;28;49692;-71
2021/12/27 02:16:48;;;;;;;;;1.00;1.00;;;;;12.11;75.43;99796.13;5070799;27;49935;-66
2021/12/27 02:19:13;;;;;;;;;1.00;1.00;;;;;12.17;75.38;99800.50;5070441;28;49943;-66
2021/12/27 02:21:38;;;;;;;;;1.50;1.00;;;;;12.03;75.53;99774.19;5070567;27;49760;-66
2021/12/27 02:24:07;;;;;;;;;3.00;1.50;;;;;12.15;75.77;99799.59;5070357;28;49725;-66
2021/12/27 02:26:33;;;;;;;;;2.00;0.50;;;;;12.15;75.44;99799.59;5063489;28;49716;-66
2021/12/27 02:28:58;;;;;;;;;0.75;0.75;;;;;12.13;75.56;99789.09;5070173;28;50522;-65
2021/12/27 02:31:23;;;;;;;;;1.00;1.00;;;;;12.15;75.72;99789.09;5070451;27;49715;-65
2021/12/27 02:33:49;;;;;;;;;0.00;0.00;;;;;12.11;75.99;99779.44;5070277;28;49829;-67
2021/12/27 02:36:14;;;;;;;;;0.75;0.75;;;;;12.11;75.76;99782.97;5070708;28;49904;-66
2021/12/27 02:38:43;;;;;;;;;0.75;0.75;;;;;12.11;76.15;99775.06;5070094;28;50149;-65
2021/12/27 02:41:10;;;;;;;;;2.00;2.00;;;;;12.12;76.32;99775.94;5069780;28;49771;-66
2021/12/27 02:43:38;;;;;;;;;0.00;0.00;;;;;12.16;76.27;99778.59;5070205;27;49812;-67
2021/12/27 02:46:07;;;;;;;;;3.00;1.50;;;;;12.19;76.34;99791.72;5070252;28;49589;-65
2021/12/27 02:48:35;;;;;;;;;2.75;1.75;;;;;12.16;76.19;99780.31;5070428;28;49687;-65
2021/12/27 02:51:00;;;;;;;;;1.50;0.75;;;;;12.21;76.31;99770.66;5074276;28;49787;-65
2021/12/27 02:53:28;;;;;;;;;1.25;1.25;;;;;12.22;75.92;99773.28;5069973;28;49817;-66
2021/12/27 02:55:55;;;;;;;;;1.00;1.00;;;;;12.24;75.69;99768.91;5070253;28;50073;-65
2021/12/27 02:58:22;;;;;;;;;1.00;1.00;;;;;12.21;75.77;99761.00;5069398;28;50641;-65
2021/12/27 03:00:56;;;;;;;;;1.00;1.00;;;;;12.20;75.65;99761.91;5070017;27;49805;-66
2021/12/27 03:03:21;;;;;;;;;2.75;2.00;;;;;12.17;75.66;99747.88;5069901;28;49941;-65
2021/12/27 03:05:47;;;;;;;;;1.00;1.00;;;;;12.21;75.44;99757.50;5070108;28;50038;-66
2021/12/27 03:08:15;;;;;;;;;1.50;1.50;;;;;12.20;75.46;99758.41;5069774;27;50488;-66
2021/12/27 03:10:43;;;;;;;;;1.00;1.00;;;;;12.10;75.57;99751.41;5069675;28;49632;-66
2021/12/27 03:13:14;;;;;;;;;3.25;2.75;;;;;12.13;75.82;99754.00;5071799;28;49752;-66
2021/12/27 03:15:40;;;;;;;;;2.00;1.50;;;;;12.02;75.63;99756.66;5073296;28;49931;-66
2021/12/27 03:18:05;;;;;;;;;1.75;1.75;;;;;12.13;75.64;99756.66;5073019;28;50469;-66
2021/12/27 03:20:30;;;;;;;;;1.25;1.25;;;;;12.13;75.74;99754.00;5073295;27;49841;-65
2021/12/27 03:22:56;;;;;;;;;4.50;2.75;;;;;12.13;75.76;99759.28;5073296;27;49761;-66
2021/12/27 03:25:24;;;;;;;;;5.00;2.00;;;;;12.14;75.77;99755.75;5073171;27;49895;-66
2021/12/27 03:27:49;;;;;;;;;3.25;3.25;;;;;12.15;75.72;99752.25;5072791;28;50616;-66
2021/12/27 03:30:18;;;;;;;;;2.00;1.25;;;;;12.13;75.78;99740.84;5072980;28;49714;-66
2021/12/27 03:32:43;;;;;;;;;3.25;3.25;;;;;12.03;75.67;99729.47;5073043;28;49605;-65
2021/12/27 03:35:14;;;;;;;;;3.50;3.50;;;;;12.08;75.38;99733.00;5073740;28;49882;-66
2021/12/27 03:37:47;;;;;;;;;2.75;2.75;;;;;12.09;75.58;99734.75;5072726;27;49620;-66
2021/12/27 03:40:16;;;;;;;;;2.75;2.00;;;;;12.14;75.41;99734.72;5072971;28;49893;-66
2021/12/27 03:42:41;;;;;;;;;3.50;2.25;;;;;12.05;75.31;99714.56;5072858;28;49707;-66
2021/12/27 03:45:08;;;;;;;;;3.00;3.00;;;;;12.13;75.40;99725.94;5072830;28;49977;-65
2021/12/27 03:47:34;;;;;;;;;3.00;2.00;;;;;12.13;75.08;99720.69;5072919;28;49644;-66
2021/12/27 03:49:59;;;;;;;;;3.00;3.00;;;;;12.14;75.40;99717.16;5072632;28;49818;-65
2021/12/27 03:52:25;;;;;;;;;4.75;3.75;;;;;12.12;75.05;99718.06;5072991;27;50281;-65
2021/12/27 03:54:50;;;;;;;;;3.25;3.25;;;;;12.11;75.16;99714.56;5073125;28;49826;-66
2021/12/27 03:57:16;;;;;;;;;3.25;3.00;;;;;12.17;75.10;99718.94;5072191;28;50600;-66
2021/12/27 04:02:09;;;;;;;;;3.50;2.50;;;;;12.14;75.13;99716.28;5072754;28;49804;-65
2021/12/27 04:04:34;;;;;;;;;5.00;4.00;;;;;12.13;74.90;99710.16;5072397;27;49665;-66
2021/12/27 04:07:01;;;;;;;;;5.00;4.00;;;;;12.08;74.98;99700.53;5072208;28;49802;-65
2021/12/27 04:09:27;;;;;;;;;6.00;4.00;;;;;12.16;74.78;99706.63;5085194;27;49752;-65
2021/12/27 04:11:53;;;;;;;;;4.50;4.50;;;;;12.11;75.32;99704.03;5076355;28;49691;-65
2021/12/27 04:14:18;;;;;;;;;7.00;4.00;;;;;12.07;75.03;99701.44;5072532;28;50010;-65
2021/12/27 04:16:43;;;;;;;;;7.75;6.75;;;;;12.09;74.82;99703.16;5072314;28;49698;-66
2021/12/27 04:19:09;;;;;;;;;2.25;2.00;;;;;12.10;74.73;99707.56;5077209;28;49823;-66
2021/12/27 04:21:34;;;;;;;;;4.50;3.00;;;;;12.08;74.83;99700.53;5074683;28;49962;-66
2021/12/27 04:24:00;;;;;;;;;3.75;3.75;;;;;12.13;74.43;99693.50;5072398;28;50106;-65
2021/12/27 04:26:25;;;;;;;;;4.75;2.75;;;;;12.06;74.77;99690.00;5071453;28;50637;-66
2021/12/27 04:28:51;;;;;;;;;3.75;3.00;;;;;12.03;75.00;99692.66;5072144;28;49577;-65
2021/12/27 04:31:16;;;;;;;;;3.00;3.00;;;;;12.11;74.69;99703.16;5075347;28;49843;-67
2021/12/27 04:33:42;;;;;;;;;4.50;4.00;;;;;12.12;74.80;99699.66;5075056;28;49870;-66
2021/12/27 04:36:07;;;;;;;;;3.75;3.25;;;;;12.11;74.56;99696.16;5071861;28;49803;-66
2021/12/27 04:38:34;;;;;;;;;3.75;3.25;;;;;12.11;74.77;99704.03;5075384;28;49810;-67
2021/12/27 04:40:59;;;;;;;;;3.00;3.00;;;;;12.11;74.94;99701.41;5071928;28;49839;-66
2021/12/27 04:43:25;;;;;;;;;5.25;3.00;;;;;12.13;74.63;99699.63;5072045;28;49980;-65
2021/12/27 04:45:53;;;;;;;;;3.25;3.25;;;;;12.13;74.88;99697.00;5071337;28;49917;-66
2021/12/27 04:48:20;;;;;;;;;3.00;2.50;;;;;11.97;74.71;99679.53;5071636;27;49838;-65
2021/12/27 04:50:46;;;;;;;;;5.25;5.25;;;;;12.12;74.83;99702.28;5071822;28;49727;-65
2021/12/27 04:53:12;;;;;;;;;2.50;2.50;;;;;11.74;74.70;99645.34;5072060;28;49642;-66
2021/12/27 04:55:37;;;;;;;;;5.00;3.25;;;;;12.13;74.46;99714.56;5071602;28;51545;-65
2021/12/27 04:58:05;;;;;;;;;5.50;3.25;;;;;12.14;74.69;99719.81;5053304;28;49900;-65
2021/12/27 05:00:31;;;;;;;;;7.50;4.00;;;;;11.86;74.77;99671.63;5071582;28;49793;-66
2021/12/27 05:02:58;;;;;;;;;4.75;2.50;;;;;12.17;74.80;99719.81;5071650;28;49932;-65
2021/12/27 05:05:25;;;;;;;;;4.50;3.00;;;;;12.07;74.50;99711.94;5071352;28;50437;-66
2021/12/27 05:07:51;;;;;;;;;5.50;4.50;;;;;12.19;74.39;99735.59;5071394;28;49869;-66
2021/12/27 05:10:17;;;;;;;;;5.00;3.25;;;;;12.20;74.41;99730.31;5071485;28;49759;-66
2021/12/27 05:12:44;;;;;;;;;3.25;3.25;;;;;12.17;74.36;99729.47;5071471;28;49836;-65
2021/12/27 05:15:10;;;;;;;;;3.75;3.75;;;;;12.19;74.43;99731.22;5071213;28;50627;-65
2021/12/27 05:17:35;;;;;;;;;4.25;4.25;;;;;12.13;74.26;99720.69;5071231;28;50261;-66
2021/12/27 05:20:04;;;;;;;;;4.00;3.50;;;;;12.20;74.45;99729.44;5071453;27;49743;-66
2021/12/27 05:22:31;;;;;;;;;7.00;5.25;;;;;12.16;74.56;99722.44;5071767;28;50191;-66
2021/12/27 05:24:56;;;;;;;;;2.50;2.50;;;;;12.20;74.54;99725.06;5070880;27;49842;-66
2021/12/27 05:27:22;;;;;;;;;3.00;3.00;;;;;12.17;74.57;99725.09;5070920;28;49784;-65
2021/12/27 05:29:47;;;;;;;;;4.75;4.75;;;;;12.21;74.32;99720.69;5071372;28;50174;-66
2021/12/27 05:32:12;;;;;;;;;5.50;4.00;;;;;12.21;74.31;99713.66;5071406;28;49915;-66
2021/12/27 05:34:38;;;;;;;;;6.50;3.25;;;;;12.15;74.31;99700.50;5070426;28;50606;-66
2021/12/27 05:37:04;;;;;;;;;4.25;3.50;;;;;12.24;74.26;99702.25;5070888;28;49581;-66
2021/12/27 05:39:29;;;;;;;;;7.50;6.50;;;;;12.11;74.23;99688.25;5071100;28;49631;-66
2021/12/27 05:41:55;;;;;;;;;4.75;3.25;;;;;12.21;74.29;99697.00;5070986;28;49684;-65
2021/12/27 05:44:20;;;;;;;;;6.00;5.00;;;;;12.13;74.04;99672.47;5070839;27;50623;-66
2021/12/27 05:46:45;;;;;;;;;2.75;2.00;;;;;12.19;74.38;99669.81;5070865;27;49854;-65
2021/12/27 05:49:11;;;;;;;;;5.00;5.00;;;;;12.20;74.23;99676.81;5073390;28;50083;-66
2021/12/27 05:51:36;;;;;;;;;4.75;4.25;;;;;11.79;74.17;99601.53;5071008;28;49595;-66
2021/12/27 05:54:04;;;;;;;;;4.50;4.00;;;;;12.04;74.58;99632.13;5070855;27;50646;-66
2021/12/27 05:56:29;;;;;;;;;5.25;5.25;;;;;12.08;74.43;99632.16;5070616;27;50007;-66
2021/12/27 05:58:55;;;;;;;;;5.25;4.00;;;;;12.18;74.22;99636.50;5070674;28;49798;-66
2021/12/27 06:01:20;;;;;;;;;8.00;5.75;;;;;11.90;74.46;99594.50;5070857;28;49811;-65
2021/12/27 06:03:45;;;;;;;;;7.00;5.75;;;;;12.20;74.02;99624.22;5070536;28;52701;-67
2021/12/27 06:06:11;;;;;;;;;6.00;5.00;;;;;12.15;74.20;99612.81;5070778;27;49694;-65
2021/12/27 06:08:36;;;;;;;;;5.00;5.00;;;;;12.14;74.38;99604.03;5070818;28;50091;-66
2021/12/27 06:11:02;;;;;;;;;4.00;4.00;;;;;12.15;74.15;99602.28;5070917;27;49895;-66
2021/12/27 06:13:27;;;;;;;;;6.25;4.50;;;;;12.13;73.77;99583.00;5070468;28;49419;-66
2021/12/27 06:15:53;;;;;;;;;4.00;3.75;;;;;12.03;74.13;99564.63;5070384;28;49592;-66
2021/12/27 06:18:18;;;;;;;;;5.00;3.75;;;;;12.07;74.00;99559.38;5070643;27;49823;-66
2021/12/27 06:20:43;;;;;;;;;9.50;5.00;;;;;12.07;74.56;99557.63;5070759;28;49850;-65
2021/12/27 06:23:09;;;;;;;;;4.25;4.25;;;;;12.09;74.41;99558.50;5070430;27;49669;-66
2021/12/27 06:25:34;;;;;;;;;4.75;4.00;;;;;12.05;74.17;99538.31;5070126;28;49784;-66
2021/12/27 06:27:59;;;;;;;;;7.50;4.75;;;;;12.06;74.18;99534.81;5103291;27;50105;-64
2021/12/27 06:30:26;;;;;;;;;8.75;8.50;;;;;12.07;74.37;99530.44;5070387;27;50060;-65
2021/12/27 06:32:51;;;;;;;;;6.25;5.00;;;;;12.06;74.02;99511.13;5068889;28;52661;-66
2021/12/27 06:35:18;;;;;;;;;6.25;5.00;;;;;12.03;74.04;99505.91;5070247;27;49731;-66
2021/12/27 06:37:46;;;;;;;;;6.50;5.00;;;;;11.99;74.06;99499.78;5070381;27;49756;-66
2021/12/27 06:40:13;;;;;;;;;6.25;4.00;;;;;11.96;74.12;99489.25;5070535;28;49713;-65
2021/12/27 06:42:39;;;;;;;;;8.00;7.75;;;;;11.92;74.11;99492.81;5069584;27;49797;-65
2021/12/27 06:45:05;;;;;;;;;10.75;9.00;;;;;11.83;74.15;99484.09;5070302;28;49912;-65
2021/12/27 06:47:31;;;;;;;;;12.75;9.75;;;;;11.86;73.91;99499.84;5071166;28;49530;-65
2021/12/27 06:49:56;;;;;;;;;7.50;7.25;;;;;11.80;73.65;99495.50;5073884;28;49716;-65
2021/12/27 06:52:24;;;;;;;;;4.50;3.75;;;;;11.72;73.68;99495.50;5073604;28;50419;-65
2021/12/27 06:54:49;;;;;;;;;10.75;8.00;;;;;11.68;73.99;99490.25;5073798;27;49754;-65
2021/12/27 06:57:17;;;;;;;;;7.25;7.25;;;;;11.63;74.54;99489.41;5073399;28;49756;-65
2021/12/27 06:59:43;;;;;;;;;10.75;9.00;;;;;11.64;74.64;99497.28;5073864;28;49866;-64
2021/12/27 07:02:08;;;;;;;;;11.50;9.25;;;;;11.63;73.89;99487.63;5073646;27;51668;-65
2021/12/27 07:04:34;;;;;;;;;10.50;7.25;;;;;11.56;74.17;99499.03;5073708;28;49945;-66
2021/12/27 07:06:59;;;;;;;;;8.25;8.25;;;;;11.54;74.05;99497.31;5073530;27;50479;-65
2021/12/27 07:09:25;;;;;;;;;7.75;7.25;;;;;11.53;74.06;99499.06;5073634;28;49744;-66
2021/12/27 07:11:53;;;;;;;;;4.50;4.50;;;;;11.51;73.96;99498.19;5073164;28;50957;-66
2021/12/27 07:14:18;;;;;;;;;8.25;8.25;;;;;11.53;73.91;99501.69;5066553;28;49642;-65
2021/12/27 07:16:43;;;;;;;;;7.75;6.50;;;;;11.50;74.05;99506.97;5073362;28;49771;-65
2021/12/27 07:19:09;;;;;;;;;7.00;6.25;;;;;11.40;74.21;99484.22;5073625;28;49867;-65
2021/12/27 07:21:34;;;;;;;;;10.75;7.75;;;;;11.31;73.86;99476.38;5073203;28;50680;-67
2021/12/27 07:24:00;;;;;;;;;7.50;7.50;;;;;11.02;74.10;99426.53;5073392;28;49945;-66
2021/12/27 07:26:25;;;;;;;;;8.00;7.00;;;;;11.40;74.57;99495.59;5072142;28;50063;-65
2021/12/27 07:28:51;;;;;;;;;5.00;5.00;;;;;11.23;74.31;99471.13;5076950;27;50032;-65
2021/12/27 07:31:16;;;;;;;;;4.25;4.25;;;;;11.38;74.60;99505.22;5072851;28;49775;-65
2021/12/27 07:33:41;;;;;;;;;5.00;5.00;;;;;11.35;74.37;99505.25;5073320;27;49940;-65
2021/12/27 07:36:08;;;;;;;;;9.50;5.00;;;;;11.33;74.48;99511.38;5073244;28;49682;-65
2021/12/27 07:38:35;;;;;;;;;6.25;6.25;;;;;11.30;74.95;99514.91;5073373;28;49984;-65
2021/12/27 07:41:01;;;;;;;;;7.00;7.00;;;;;11.22;74.27;99507.91;5072583;28;49723;-65
2021/12/27 07:43:26;;;;;;;;;8.00;7.75;;;;;11.14;74.32;99500.03;5072973;28;49578;-65
2021/12/27 07:45:51;;;;;;;;;6.50;6.50;;;;;11.18;75.06;99504.41;5072241;27;49823;-66
2021/12/27 07:48:17;;;;;;;;;8.25;5.00;;;;;11.15;74.90;99500.03;5071677;28;49689;-65
2021/12/27 07:50:42;;;;;;;;;6.75;6.75;;;;;11.24;74.53;99514.91;5072444;28;50044;-65
2021/12/27 07:53:08;;;;;;;;;6.75;4.75;;;;;11.24;75.17;99512.28;5073125;27;49828;-65
2021/12/27 07:55:34;;;;;;;;;8.75;4.00;;;;;11.21;74.69;99508.78;5072934;28;49978;-65
2021/12/27 07:57:59;;;;;;;;;4.00;4.00;;;;;11.08;75.11;99482.53;5072149;27;49879;-65
2021/12/27 08:00:25;;;;;;;;;5.00;5.00;;;;;11.06;74.60;99483.41;5071564;28;50341;-65
2021/12/27 08:02:51;;;;;;;;;8.25;6.75;;;;;11.14;74.95;99506.16;5072082;28;49859;-65
2021/12/27 08:05:17;;;;;;;;;1.75;1.75;;;;;11.06;74.69;99500.03;5072762;27;49835;-66
2021/12/27 08:07:43;;;;;;;;;5.50;4.00;;;;;11.13;74.92;99504.41;5072951;28;49741;-65
2021/12/27 08:10:10;;;;;;;;;7.25;6.00;;;;;11.15;75.00;99507.03;5072253;28;50454;-65
2021/12/27 08:12:36;;;;;;;;;9.25;8.00;;;;;11.14;74.26;99500.91;5072429;28;49867;-65
2021/12/27 08:15:05;;;;;;;;;5.25;4.25;;;;;11.20;74.54;99496.53;5072178;28;49531;-66
2021/12/27 08:17:30;;;;;;;;;4.50;3.75;;;;;11.21;74.78;99491.28;5072099;28;49838;-65
2021/12/27 08:19:56;;;;;;;;;7.25;5.00;;;;;11.19;74.19;99482.50;5071206;27;50777;-66
2021/12/27 08:22:21;;;;;;;;;6.50;3.50;;;;;11.24;74.45;99486.00;5071843;28;49892;-66
2021/12/27 08:24:46;;;;;;;;;5.25;3.00;;;;;11.18;73.83;99467.63;5072203;28;49921;-66
2021/12/27 08:27:12;;;;;;;;;3.50;3.50;;;;;11.27;74.00;99483.38;5072116;27;49838;-66
2021/12/27 08:29:38;;;;;;;;;4.00;4.00;;;;;11.25;73.53;99492.13;5072241;28;49725;-66
2021/12/27 08:32:04;;;;;;;;;4.75;4.75;;;;;11.11;73.82;99468.53;5072426;28;49857;-66
2021/12/27 08:34:31;;;;;;;;;3.00;3.00;;;;;11.08;73.85;99458.00;5072187;28;49664;-66
2021/12/27 08:36:57;;;;;;;;;3.50;3.50;;;;;11.22;73.44;99489.53;5071874;27;49651;-65
2021/12/27 08:39:22;;;;;;;;;4.00;4.00;;;;;11.08;73.37;99466.75;5071936;28;49866;-65
2021/12/27 08:41:47;;;;;;;;;4.00;3.00;;;;;11.13;73.17;99472.91;5071856;28;49677;-66
2021/12/27 08:44:13;;;;;;;;;4.75;4.25;;;;;11.21;73.15;99486.03;5072198;27;49848;-66
2021/12/27 08:46:40;;;;;;;;;4.25;3.75;;;;;11.21;73.36;99478.13;5072295;27;50114;-66
2021/12/27 08:49:05;;;;;;;;;4.00;3.00;;;;;11.20;73.25;99480.78;5071970;27;50321;-67
2021/12/27 08:51:31;;;;;;;;;6.75;5.50;;;;;11.19;72.92;99477.25;5071407;28;50054;-66
2021/12/27 08:53:56;;;;;;;;;3.25;3.25;;;;;11.25;73.01;99468.50;5071916;28;50004;-65
2021/12/27 08:56:22;;;;;;;;;4.00;4.00;;;;;11.17;73.29;99458.88;5071831;28;49806;-66
2021/12/27 08:58:48;;;;;;;;;4.75;3.50;;;;;11.10;73.35;99435.28;5071626;27;50318;-65
2021/12/27 09:01:13;;;;;;;;;3.50;2.75;;;;;11.31;73.16;99464.09;5082302;28;49684;-65
2021/12/27 09:03:39;;;;;;;;;2.25;2.00;;;;;11.33;73.26;99454.47;5075792;28;49945;-66
2021/12/27 09:06:04;;;;;;;;;2.75;2.75;;;;;11.32;72.68;99457.09;5073249;28;50046;-67
2021/12/27 09:08:30;;;;;;;;;4.75;3.75;;;;;10.99;72.78;99392.38;5074432;27;50343;-66
2021/12/27 09:10:58;;;;;;;;;5.00;3.25;;;;;11.38;72.56;99468.44;5070471;28;49828;-66
2021/12/27 09:13:31;;;;;;;;;4.50;2.00;;;;;11.39;72.58;99461.47;5072393;28;49866;-66
2021/12/27 09:16:00;;;;;;;;;6.00;3.75;;;;;11.24;72.36;99438.72;5065120;28;49725;-67
2021/12/27 09:18:26;;;;;;;;;5.00;2.25;;;;;11.41;72.58;99464.94;5064780;28;50546;-66
2021/12/27 09:20:51;;;;;;;;;4.00;4.00;;;;;11.39;72.66;99466.72;5064557;28;49692;-66
2021/12/27 09:23:17;;;;;;;;;3.00;3.00;;;;;11.45;72.83;99462.28;5070914;28;49691;-67
2021/12/27 09:25:44;;;;;;;;;4.25;3.00;;;;;11.42;72.37;99456.19;5070342;27;49685;-70
2021/12/27 09:28:10;;;;;;;;;4.75;4.75;;;;;11.19;72.81;99437.84;5071364;27;49644;-70
2021/12/27 09:30:37;;;;;;;;;6.25;3.50;;;;;11.33;72.54;99433.44;5071363;28;50002;-72
2021/12/27 09:33:02;;;;;;;;;3.00;3.00;;;;;11.51;72.81;99452.66;5071269;28;50041;-72
2021/12/27 09:35:27;;;;;;;;;3.75;3.50;;;;;11.33;72.43;99416.81;5071892;28;49612;-72
2021/12/27 09:37:53;;;;;;;;;4.00;4.00;;;;;11.55;72.51;99444.72;5063672;28;50028;-71
2021/12/27 09:40:18;;;;;;;;;2.75;2.75;;;;;11.59;72.23;99443.00;5071556;28;49980;-69
2021/12/27 09:42:44;;;;;;;;;3.25;2.75;;;;;11.46;72.44;99418.50;5070812;27;49772;-70
2021/12/27 09:45:09;;;;;;;;;3.00;2.00;;;;;10.96;72.16;99350.38;5071207;27;49859;-70
2021/12/27 09:47:36;;;;;;;;;5.00;5.00;;;;;11.62;71.99;99440.34;5070738;28;51094;-72
2021/12/27 09:50:05;;;;;;;;;2.00;2.00;;;;;11.60;72.45;99437.72;5069378;27;49957;-71
2021/12/27 09:52:32;;;;;;;;;1.25;1.25;;;;;11.58;73.03;99435.94;5071235;28;49834;-71
2021/12/27 09:54:58;;;;;;;;;4.00;3.50;;;;;11.60;72.95;99431.59;5070044;28;50129;-70
2021/12/27 09:57:23;;;;;;;;;3.00;3.00;;;;;11.60;72.48;99431.59;5068316;28;50140;-71
2021/12/27 09:59:48;;;;;;;;;1.75;1.75;;;;;11.40;72.96;99397.50;5070463;28;49707;-71
2021/12/27 10:02:14;;;;;;;;;2.00;2.00;;;;;11.64;72.92;99439.44;5071126;28;49785;-71
2021/12/27 10:04:39;;;;;;;;;3.00;3.00;;;;;11.64;72.90;99439.44;5071892;27;50015;-76
2021/12/27 10:07:05;;;;;;;;;1.75;1.75;;;;;11.34;72.85;99403.66;5070400;28;49867;-68
2021/12/27 10:09:33;;;;;;;;;5.00;5.00;;;;;11.45;73.12;99422.00;5074653;27;49674;-68
2021/12/27 10:12:06;;;;;;;;;2.75;2.75;;;;;11.44;73.58;99422.88;5072645;28;49793;-69
2021/12/27 10:14:33;;;;;;;;;6.00;4.50;;;;;11.59;73.31;99443.00;5070363;28;49727;-83
2021/12/27 10:17:10;;;;;;;;;2.00;2.00;;;;;11.53;73.47;99438.63;5070589;28;50610;-65
2021/12/27 10:19:37;;;;;;;;;4.25;4.00;;;;;11.42;74.14;99422.03;5070382;28;49734;-72
2021/12/27 10:22:03;;;;;;;;;3.25;3.00;;;;;11.57;74.00;99444.72;5070425;28;49588;-69
2021/12/27 10:24:30;;;;;;;;;4.75;4.75;;;;;11.36;74.56;99419.41;5070733;27;49872;-67
2021/12/27 10:27:00;;;;;;;;;4.25;3.25;;;;;11.57;74.34;99429.81;5069409;28;49863;-66
2021/12/27 10:29:31;;;;;;;;;2.00;2.00;;;;;11.55;74.47;99431.59;5069006;28;49631;-64
2021/12/27 10:32:04;;;;;;;;;7.25;5.00;;;;;11.55;74.60;99434.22;5070196;28;50128;-68
2021/12/27 10:34:49;;;;;;;;;3.50;2.00;;;;;11.61;74.58;99428.06;5070039;28;49846;-71
2021/12/27 10:37:19;;;;;;;;;4.50;4.00;;;;;11.63;74.59;99423.69;5070149;28;49793;-68
2021/12/27 10:39:55;;;;;;;;;4.00;4.00;;;;;11.58;74.09;99407.94;5068527;28;49834;-67
2021/12/27 10:42:45;;;;;;;;;4.25;4.00;;;;;11.61;73.95;99421.06;5049413;28;50044;-65
2021/12/27 10:45:18;;;;;;;;;4.25;3.00;;;;;11.53;73.64;99404.44;5070113;28;50065;-69
2021/12/27 10:47:53;;;;;;;;;3.00;2.75;;;;;11.49;74.16;99388.72;5067362;28;50892;-72
2021/12/27 10:50:28;;;;;;;;;3.75;3.00;;;;;11.70;73.95;99420.16;5069917;28;49768;-69
2021/12/27 10:52:55;;;;;;;;;5.75;4.00;;;;;11.71;73.43;99419.25;5070231;27;49788;-72
2021/12/27 10:55:29;;;;;;;;;4.00;3.00;;;;;11.71;73.66;99425.38;5070195;27;49641;-66
2021/12/27 10:58:11;;;;;;;;;3.00;3.00;;;;;11.63;73.25;99414.03;5065165;27;50953;-65
2021/12/27 11:00:38;;;;;;;;;3.25;3.25;;;;;11.62;73.26;99424.56;5065225;28;49931;-66
2021/12/27 11:03:04;;;;;;;;;2.00;2.00;;;;;11.70;73.90;99446.44;5069678;28;49759;-68
2021/12/27 11:05:35;;;;;;;;;3.75;3.75;;;;;11.55;73.33;99412.31;5069708;28;49929;-68
2021/12/27 11:08:05;;;;;;;;;4.25;4.25;;;;;11.75;73.60;99427.09;5069283;28;50477;-66
2021/12/27 11:10:34;;;;;;;;;2.00;2.00;;;;;11.76;73.93;99426.22;5069363;28;49915;-68
2021/12/27 11:13:00;;;;;;;;;2.25;2.25;;;;;11.82;74.31;99441.13;5068329;28;49598;-66
2021/12/27 11:15:34;;;;;;;;;3.00;3.00;;;;;11.67;74.15;99404.38;5069121;27;49584;-70
2021/12/27 11:18:00;;;;;;;;;2.75;2.75;;;;;11.92;73.96;99436.72;5069412;28;51144;-67
2021/12/27 11:20:27;;;;;;;;;3.00;3.00;;;;;11.92;73.64;99427.06;5069532;28;50333;-65
2021/12/27 11:22:58;;;;;;;;;1.50;1.50;;;;;11.95;73.99;99442.81;5069746;28;49766;-66
2021/12/27 11:25:39;;;;;;;;;3.00;1.00;;;;;12.03;73.31;99445.41;5068081;28;50055;-68
2021/12/27 11:28:34;;;;;;;;;2.00;2.00;;;;;12.07;73.27;99439.25;5069148;28;49867;-71
2021/12/27 11:31:22;;;;;;;;;2.00;2.00;;;;;12.13;73.13;99440.94;5064813;28;49853;-75
2021/12/27 11:33:59;;;;;;;;;4.50;4.00;;;;;12.18;73.31;99441.81;5070240;27;49989;-71
2021/12/27 11:36:56;;;;;;;;;2.50;2.50;;;;;12.29;72.59;99427.69;5071570;28;49986;-69
2021/12/27 11:39:30;;;;;;;;;3.25;1.75;;;;;12.47;72.28;99423.19;5084148;27;52334;-69
2021/12/27 11:42:01;;;;;;;;;2.00;2.00;;;;;12.50;71.97;99395.06;5071013;27;50091;-73
2021/12/27 11:44:40;;;;;;;;;2.75;1.00;;;;;12.67;72.12;99384.38;5072621;27;50107;-70